Terminal Aerodrome Forecast
Issued by NWS Quad Cities IA IL

Home | Current Version | Previous Version | Text Only | Print | Product List | Glossary On
Versions: 1 2 3 4 5 6 7 8 9 10 11 12 13 14 15 16 17 18 19 20 21 22 23 24 25 26 27 28
000
FTUS43 KDVN 221400 AAA
TAFMLI
TAF AMD
KMLI 221429Z 2214/2312 14011KT P6SM VCSH OVC040
      TEMPO 2214/2216 5SM BR
     FM221800 14011KT 6SM -RA BR SCT020 OVC030
     FM230200 10010KT 3SM RA BR BKN012 OVC020=

USA.gov is the U.S. government's official web portal to all federal, state and local government web resources and services.